To NAV CANADA Home Page Login to a new session Search on AWWS site Feedback and Comments Disclaimer Vers la page française équivalente Tips FAQ What's new on the site To the Forecasts and Observations / NOTAM section To "File a Flight Plan" website Publications and other links Update of the User's profile FIC Telephone Numbers My Weather Data Folder Route Weather Data Regional Weather Data Local Weather Data To the Forecasts and Observations / NOTAM section
Request Generated 04/24/2014 at 01:29:36 UTC . Weather information available at that time is displayed.

METAR/TAF

DAWSON CITY/YT    

METAR CYDA 232300Z 12004KT 20SM BKN050 BKN230 11/M04 A2976 RMK SC5CI1
CLIMAT 11.1/-5.4/0.0 LAST OBS/NEXT 241400 UTC SLP094=
METAR CYDA 232200Z 09004KT 20SM FEW050 SCT100 10/M03 A2977 RMK SC2AC1
SLP099=

*** REMARK        : Forecast period has ended; this was the last TAF issued
*** REMARQUE : La période de prévision est échue; ceci était le dernier TAF qui a été émis
TAF CYDA 231738Z 2318/2323 VRB03KT P6SM SCT050 BKN090 TEMPO 2318/2323
BKN050
BECMG 2320/2322 07008KT
RMK NXT FCST WILL BE ISSUED AT 241545Z=
Your time UTC time
Weather data provided by Environment Canada and NAV CANADA